Terminal Aerodrome Forecast
Issued by NWS

Home | Current Version | Previous Version | Text Only | Print | Product List | Glossary Off
Versions: 1 2 3 4 5 6 7 8 9 10 11 12 13 14 15

000
FTUS43 KTOP 271100
TAFMHK
TAF
KMHK 271130Z 2712/2812 02005KT P6SM SCT025 BKN150
      TEMPO 2712/2713 BKN015
     FM280100 15007KT P6SM BKN050=

USA.gov is the U.S. government's official web portal to all federal, state and local government web resources and services.